LPFRGCLP

Guest
Details From LPFR - Faro
To GCLP - Gran Canaria
Flight Number -
Tags generated
Created
Modified
Stats Distance 662 nm / 1,226 km
Max Altitude 34,000 ft / 10,363 m
Waypoints 10
Social Downloads 3
Likes 0
Share VATSIM

Download

Looking for another format? Having issues loading an existing format? Contact us
Advertisement - Login to hide

Notes

Basic altitude profile: - Ascent Rate: 2500ft/min - Ascent Speed: 250kts - Cruise Altitude: 35000ft - Cruise Speed: 420kts - Descent Rate: 1500ft/min - Descent Speed: 250kts Options: - Use NATs: yes - Use PACOTS: yes - Use low airways: yes - Use high airways: yes

Route

LPFR AKUDA UN858 VASTO N858 LARYS GCLP

ID Type Via Altitude Latitude Longitude Leg Dist Tot Dist Heading (true) Name
O LPFR APT - 0 ft / 0 m 37.01534˚ -7.97233˚ - 0 nm - Faro
AKUDA FIX - 28,100 ft / 8,565 m 35.96667˚ -8.95000˚ 78 nm 78 nm 217° / 217° -
SUNID FIX UN858 (AWY-HI) 34,000 ft / 10,363 m 34.61972˚ -10.15667˚ 100 nm 178 nm 217° / 216° -
ATLUX FIX UN858 (AWY-HI) 34,000 ft / 10,363 m 32.99750˚ -11.55167˚ 119 nm 298 nm 216° / 215° -
DIMSA FIX UN858 (AWY-HI) 34,000 ft / 10,363 m 31.97194˚ -12.39889˚ 75 nm 373 nm 215° / 215° -
SULAM FIX UN858 (AWY-HI) 34,000 ft / 10,363 m 30.91833˚ -13.25000˚ 76 nm 450 nm 215° / 214° -
VASTO FIX UN858 (AWY-HI) 34,000 ft / 10,363 m 30.50944˚ -13.57278˚ 29 nm 480 nm 214° / 214° -
SARAY FIX N858 (AWY-LO) 24,500 ft / 7,468 m 29.75863˚ -14.15743˚ 54 nm 534 nm 214° / 214° -
LARYS FIX N858 (AWY-LO) 12,600 ft / 3,840 m 28.87183˚ -14.83429˚ 63 nm 598 nm 214° / 213° -
O GCLP APT - 0 ft / 0 m 27.93154˚ -15.38559˚ 63 nm 662 nm 207° / 207° Gran Canaria

Altitude Profile

Advertisement - Login to hide

Weather


0- 5 10 15 20 25 30 35+ Temperature / ° C

Clouds and Precipitation
Forecast for 2017-12-15 06:00 UTC. Updated 2 hours ago

Ground ~20,000 ft ~40,000 ft Winds

LPFR

Details ICAO LPFR (FAO)
Name Faro
Region Portugal
Timezone Europe/Lisbon (UTC+0.0)
Stats Elevation 24 ft / 7 m (AMSL)
Location 37.015336° -7.972327°
Runways 1
Magnetic Variation 1.936° W

METAR

LPFR 150300Z 28007KT 9999 FEW014 BKN025 14/14 Q1020

Decode

TAF

TAF LPFR 142300Z 1500/1524 VRB03KT 9999 FEW015 SCT035 PROB30 TEMPO 1500/1509 29007KT 5000 DZ SCT005 BKN010 BECMG 1509/1511 27013KT BECMG 1516/1518 31010KT 9999 SCT010 BKN020 TEMPO 1518/1521 3000 DZRA BR SCT004 BKN008 BECMG 1521/1524 CAVOK

Decode

Departure Runways

ID Width Length Bearing (true) Bearing (mag) Surface Threshold Offset Overrun Length
10 148 ft / 45 m 8,148 ft / 2,484 m 100.08° 102.02° Asphalt 148 ft / 45 m 0 ft / 0 m
28 148 ft / 45 m 8,148 ft / 2,484 m 280.10° 282.04° Asphalt 148 ft / 45 m 0 ft / 0 m

GCLP

Details ICAO GCLP (LPA)
Name Gran Canaria
Region Canary Islands
Timezone Atlantic/Canary (UTC+0.0)
Stats Elevation 77 ft / 23 m (AMSL)
Location 27.931544° -15.385592°
Runways 2
Magnetic Variation 4.684° W

METAR

GCLP 150300Z 36012KT 9999 FEW030 SCT040 18/11 Q1024 NOSIG

Decode

TAF

TAF GCLP 150200Z 1503/1603 01018KT 9999 FEW025 TX22/1514Z TN16/1506Z= TAF AMD NWWW 150237Z 1502/1524 13016KT 9999 FEW013 BKN040 BKN130 TEMPO 1502/1508 4500 SHRA BKN020 FEW030CB PROB30 TEMPO 1502/1506 1500 TSRA BKN015 SCT020CB BECMG 1507/1509 10006KT

Decode

Destination Runways

ID Width Length Bearing (true) Bearing (mag) Surface Threshold Offset Overrun Length
03L 148 ft / 45 m 10,203 ft / 3,110 m 21.33° 26.01° Asphalt 0 ft / 0 m 656 ft / 200 m
03R 148 ft / 45 m 10,200 ft / 3,109 m 21.32° 26.00° Asphalt 0 ft / 0 m 673 ft / 205 m
21L 148 ft / 45 m 10,200 ft / 3,109 m 201.33° 206.01° Asphalt 0 ft / 0 m 689 ft / 210 m
21R 148 ft / 45 m 10,203 ft / 3,110 m 201.33° 206.01° Asphalt 0 ft / 0 m 755 ft / 230 m

Approach Navaids

Runway Type Ident Frequency Range Bearing (true) Bearing (mag) Slope Elevation
03L Localiser ILP 109.90 MHz 18 nm / 33 km 21.33° 26.02° - 77 ft / 23 m (AMSL)
03L Glidescope ILP 109.90 MHz 10 nm / 19 km 21.33° 26.02° 3.00° 102 ft / 31 m (AMSL)
03L DME ILP 109.90 MHz 18 nm / 33 km - - - 102 ft / 31 m (AMSL)
21R Localiser RLP 110.70 MHz 18 nm / 33 km 201.32° 206.01° - 77 ft / 23 m (AMSL)
21R Glidescope RLP 110.70 MHz 10 nm / 19 km 201.33° 206.02° 3.00° 77 ft / 23 m (AMSL)
21R DME RLP 110.70 MHz 18 nm / 33 km - - - 57 ft / 17 m (AMSL)

Popular Alternatives